createdAt,value
2022-12-04T00:00:15.062Z,8.40
2022-12-04T00:03:38.077Z,8.40
2022-12-04T00:07:00.120Z,8.30
2022-12-04T00:10:22.151Z,8.30
2022-12-04T00:13:44.710Z,8.30
2022-12-04T00:17:06.787Z,8.30
2022-12-04T00:20:29.036Z,8.30
2022-12-04T00:23:51.302Z,8.30
2022-12-04T00:27:13.348Z,8.30
2022-12-04T00:30:35.497Z,8.30
2022-12-04T00:33:57.699Z,8.30
2022-12-04T00:37:20.589Z,8.30
2022-12-04T00:40:50.149Z,8.30
2022-12-04T00:44:12.911Z,8.40
2022-12-04T00:47:34.921Z,8.60
2022-12-04T00:51:00.974Z,8.70
2022-12-04T00:54:23.018Z,8.80
2022-12-04T00:57:45.028Z,8.80
2022-12-04T01:01:13.935Z,8.90
2022-12-04T01:04:36.007Z,9.00
2022-12-04T01:07:58.053Z,9.00
2022-12-04T01:11:21.729Z,9.00
2022-12-04T01:14:43.826Z,9.10
2022-12-04T01:18:05.917Z,9.10
2022-12-04T01:21:28.153Z,9.00
2022-12-04T01:24:50.191Z,8.80
2022-12-04T01:28:12.275Z,8.70
2022-12-04T01:31:34.658Z,8.60
2022-12-04T01:34:56.778Z,8.50
2022-12-04T01:38:18.805Z,8.50
2022-12-04T01:41:40.805Z,8.40
2022-12-04T01:45:40.312Z,8.40
2022-12-04T01:49:04.055Z,8.30
2022-12-04T01:52:27.029Z,8.20
2022-12-04T01:55:49.660Z,8.20
2022-12-04T01:59:15.746Z,8.20
2022-12-04T02:02:45.304Z,8.20
2022-12-04T02:06:07.658Z,8.20
2022-12-04T02:09:31.213Z,8.20
2022-12-04T02:13:26.461Z,8.20
2022-12-04T02:17:04.875Z,8.20
2022-12-04T02:20:30.179Z,8.20
2022-12-04T02:24:02.893Z,8.30
2022-12-04T02:27:40.481Z,8.30
2022-12-04T02:31:05.053Z,8.40
2022-12-04T02:34:30.359Z,8.40
2022-12-04T02:38:22.781Z,8.50
2022-12-04T02:42:18.673Z,8.50
2022-12-04T02:45:46.671Z,8.50
2022-12-04T02:49:14.651Z,8.50
2022-12-04T02:52:41.521Z,8.70
2022-12-04T02:56:19.175Z,8.70
2022-12-04T02:59:44.086Z,8.80
2022-12-04T03:03:18.318Z,8.80
2022-12-04T03:06:43.215Z,8.90
2022-12-04T03:10:14.466Z,9.10
2022-12-04T03:13:50.562Z,9.20
2022-12-04T03:17:18.433Z,9.40
2022-12-04T03:20:42.710Z,9.70
2022-12-04T03:24:13.557Z,9.90
2022-12-04T03:28:18.297Z,10.00
2022-12-04T03:31:50.872Z,10.00
2022-12-04T03:35:34.229Z,10.10
2022-12-04T03:39:02.670Z,10.00
2022-12-04T03:42:38.686Z,10.00
2022-12-04T03:46:19.861Z,10.00
2022-12-04T03:50:02.985Z,10.00
2022-12-04T03:53:32.851Z,10.00
2022-12-04T03:57:12.925Z,10.00
2022-12-04T04:00:40.415Z,10.10
2022-12-04T04:04:05.280Z,10.10
2022-12-04T04:07:35.858Z,10.20
2022-12-04T04:11:11.350Z,10.20
2022-12-04T04:14:58.163Z,10.20
2022-12-04T04:18:38.865Z,10.10
2022-12-04T04:22:24.174Z,10.10
2022-12-04T04:25:47.439Z,10.10
2022-12-04T04:29:10.863Z,10.00
2022-12-04T04:32:35.589Z,10.00
2022-12-04T04:36:07.843Z,10.00
2022-12-04T04:39:39.207Z,9.90
2022-12-04T04:43:17.520Z,9.90
2022-12-04T04:46:46.943Z,9.90
2022-12-04T04:50:11.674Z,10.00
2022-12-04T04:53:46.970Z,10.00
2022-12-04T04:57:09.024Z,10.00
2022-12-04T05:00:31.159Z,9.90
2022-12-04T05:03:53.286Z,10.00
2022-12-04T05:07:15.302Z,9.90
2022-12-04T05:10:37.388Z,9.90
2022-12-04T05:13:59.513Z,9.80
2022-12-04T05:17:21.540Z,9.80
2022-12-04T05:20:43.555Z,9.80
2022-12-04T05:24:05.780Z,9.70
2022-12-04T05:27:29.195Z,9.60
2022-12-04T05:30:59.098Z,9.60
2022-12-04T05:34:21.205Z,9.50
2022-12-04T05:37:43.317Z,9.50
2022-12-04T05:41:06.674Z,9.40
2022-12-04T05:44:28.786Z,9.40
2022-12-04T05:47:50.791Z,9.40
2022-12-04T05:51:13.003Z,9.30
2022-12-04T05:54:35.046Z,9.30
2022-12-04T05:57:57.973Z,9.30
2022-12-04T06:01:23.238Z,9.30
2022-12-04T06:04:45.327Z,9.30
2022-12-04T06:08:07.444Z,9.30
2022-12-04T06:11:32.590Z,9.30
2022-12-04T06:14:54.704Z,9.30
2022-12-04T06:18:17.584Z,9.30
2022-12-04T06:21:41.214Z,9.30
2022-12-04T06:25:03.685Z,9.30
2022-12-04T06:28:25.735Z,9.30
2022-12-04T06:31:47.888Z,9.30
2022-12-04T06:35:10.032Z,9.00
2022-12-04T06:38:32.460Z,8.80
2022-12-04T06:41:54.470Z,8.60
2022-12-04T06:45:16.631Z,8.50
2022-12-04T06:48:39.087Z,8.40
2022-12-04T06:52:01.151Z,8.30
2022-12-04T06:55:23.161Z,8.30
2022-12-04T06:58:46.152Z,8.30
2022-12-04T07:02:09.793Z,8.30
2022-12-04T07:05:31.989Z,8.20
2022-12-04T07:08:59.589Z,8.20
2022-12-04T07:12:21.591Z,8.10
2022-12-04T07:15:43.656Z,8.10
2022-12-04T07:19:05.766Z,8.10
2022-12-04T07:22:28.381Z,8.10
2022-12-04T07:25:50.567Z,8.10
2022-12-04T07:29:12.732Z,8.00
2022-12-04T07:32:34.889Z,8.10
2022-12-04T07:35:59.365Z,8.00
2022-12-04T07:39:21.395Z,8.00
2022-12-04T07:42:43.442Z,8.00
2022-12-04T07:46:09.295Z,8.00
2022-12-04T07:49:31.784Z,8.00
2022-12-04T07:52:53.818Z,8.00
2022-12-04T07:56:16.867Z,8.00
2022-12-04T07:59:39.357Z,8.00
2022-12-04T08:03:01.408Z,7.90
2022-12-04T08:06:25.252Z,8.00
2022-12-04T08:09:47.255Z,8.00
2022-12-04T08:13:09.253Z,8.00
2022-12-04T08:16:33.650Z,8.00
2022-12-04T08:19:56.016Z,8.00
2022-12-04T08:23:18.230Z,8.00
2022-12-04T08:26:40.500Z,8.00
2022-12-04T08:30:02.560Z,8.00
2022-12-04T08:33:25.849Z,8.00
2022-12-04T08:36:48.140Z,8.00
2022-12-04T08:40:12.064Z,8.00
2022-12-04T08:43:34.595Z,8.10
2022-12-04T08:46:57.164Z,8.20
2022-12-04T08:50:19.382Z,8.30
2022-12-04T08:53:41.927Z,8.30
2022-12-04T08:57:04.352Z,8.40
2022-12-04T09:00:27.362Z,8.40
2022-12-04T09:03:49.464Z,8.30
2022-12-04T09:07:11.504Z,8.30
2022-12-04T09:10:36.126Z,8.30
2022-12-04T09:13:58.178Z,8.30
2022-12-04T09:17:20.205Z,8.30
2022-12-04T09:20:42.209Z,8.30
2022-12-04T09:24:04.334Z,8.40
2022-12-04T09:27:26.468Z,8.40
2022-12-04T09:31:03.684Z,8.50
2022-12-04T09:34:25.794Z,8.50
2022-12-04T09:37:47.866Z,8.60
2022-12-04T09:41:18.733Z,8.50
2022-12-04T09:45:09.629Z,8.60
2022-12-04T09:48:36.065Z,8.80
2022-12-04T09:52:02.402Z,8.90
2022-12-04T09:55:30.599Z,8.90
2022-12-04T09:58:55.629Z,8.80
2022-12-04T10:02:37.641Z,8.70
2022-12-04T10:06:12.022Z,8.70
2022-12-04T10:09:58.899Z,8.60
2022-12-04T10:13:56.690Z,8.60
2022-12-04T10:17:22.073Z,8.60
2022-12-04T10:21:09.779Z,8.50
2022-12-04T10:24:55.559Z,8.50
2022-12-04T10:28:26.452Z,8.50
2022-12-04T10:31:50.934Z,8.60
2022-12-04T10:35:29.539Z,8.60
2022-12-04T10:38:56.801Z,8.60
2022-12-04T10:42:43.700Z,8.60
2022-12-04T10:46:11.398Z,8.60
2022-12-04T10:49:36.394Z,8.60
2022-12-04T10:52:59.057Z,8.50
2022-12-04T10:56:24.282Z,8.60
2022-12-04T10:59:55.454Z,8.60
2022-12-04T11:03:29.226Z,8.60
2022-12-04T11:07:01.417Z,8.70
2022-12-04T11:10:43.883Z,8.70
2022-12-04T11:14:16.011Z,8.70
2022-12-04T11:17:38.006Z,8.80
2022-12-04T11:21:01.951Z,8.90
2022-12-04T11:24:30.316Z,9.00
2022-12-04T11:27:58.266Z,8.90
2022-12-04T11:31:22.949Z,8.90
2022-12-04T11:34:46.090Z,8.90
2022-12-04T11:38:15.380Z,9.00
2022-12-04T11:41:37.539Z,9.10
2022-12-04T11:45:19.322Z,9.10
2022-12-04T11:48:44.525Z,9.10
2022-12-04T11:52:38.425Z,9.20
2022-12-04T11:56:13.586Z,9.20
2022-12-04T11:59:41.788Z,9.20
2022-12-04T12:03:31.881Z,9.20
2022-12-04T12:07:08.619Z,9.40
2022-12-04T12:10:33.591Z,9.50
2022-12-04T12:14:08.623Z,9.60
2022-12-04T12:17:34.213Z,9.60
2022-12-04T12:21:00.135Z,9.70
2022-12-04T12:24:33.603Z,9.60
2022-12-04T12:27:58.248Z,9.50
2022-12-04T12:31:51.141Z,9.40
2022-12-04T12:35:24.435Z,9.40
2022-12-04T12:38:54.363Z,9.20
2022-12-04T12:42:25.777Z,9.10
2022-12-04T12:45:55.530Z,9.10
2022-12-04T12:49:32.253Z,9.10
2022-12-04T12:53:11.677Z,9.10
2022-12-04T12:56:46.326Z,9.20
2022-12-04T13:00:17.947Z,9.10
2022-12-04T13:04:08.864Z,8.80
2022-12-04T13:07:42.764Z,8.80
2022-12-04T13:11:13.126Z,8.80
2022-12-04T13:14:35.207Z,8.90
2022-12-04T13:17:58.556Z,8.90
2022-12-04T13:21:31.019Z,8.80
2022-12-04T13:25:19.551Z,8.80
2022-12-04T13:29:02.659Z,8.80
2022-12-04T13:32:39.410Z,8.80
2022-12-04T13:36:11.957Z,8.80
2022-12-04T13:40:07.973Z,8.80
2022-12-04T13:43:42.307Z,8.70
2022-12-04T13:47:07.939Z,8.70
2022-12-04T13:50:35.042Z,8.70
2022-12-04T13:54:11.130Z,8.60
2022-12-04T13:57:33.242Z,8.60
2022-12-04T14:01:23.779Z,8.60
2022-12-04T14:05:11.298Z,8.70
2022-12-04T14:08:42.801Z,8.70
2022-12-04T14:12:07.776Z,8.70
2022-12-04T14:15:33.286Z,8.80
2022-12-04T14:19:00.540Z,8.80
2022-12-04T14:22:29.950Z,8.90
2022-12-04T14:25:57.148Z,8.90
2022-12-04T14:29:30.008Z,8.90
2022-12-04T14:33:21.489Z,9.00
2022-12-04T14:36:45.888Z,9.00
2022-12-04T14:40:16.396Z,9.00
2022-12-04T14:43:40.829Z,8.90
2022-12-04T14:47:08.480Z,8.90
2022-12-04T14:50:50.240Z,8.90
2022-12-04T14:54:20.910Z,8.80
2022-12-04T14:57:55.824Z,8.80
2022-12-04T15:01:30.086Z,8.80
2022-12-04T15:04:53.369Z,8.80
2022-12-04T15:08:20.924Z,8.80
2022-12-04T15:12:15.590Z,8.80
2022-12-04T15:15:37.979Z,8.70
2022-12-04T15:19:01.429Z,8.70
2022-12-04T15:22:27.119Z,8.70
2022-12-04T15:26:21.508Z,8.70
2022-12-04T15:29:48.501Z,8.70
2022-12-04T15:33:21.429Z,8.70
2022-12-04T15:37:03.312Z,8.70
2022-12-04T15:40:29.483Z,8.70
2022-12-04T15:43:51.636Z,8.70
2022-12-04T15:47:21.705Z,8.70
2022-12-04T15:50:43.864Z,8.80
2022-12-04T15:54:14.169Z,8.70
2022-12-04T15:57:40.501Z,8.70
2022-12-04T16:01:05.755Z,8.70
2022-12-04T16:04:30.030Z,8.70
2022-12-04T16:07:57.627Z,8.70
2022-12-04T16:11:22.403Z,8.60
2022-12-04T16:14:44.397Z,8.60
2022-12-04T16:18:07.643Z,8.50
2022-12-04T16:21:31.660Z,8.50
2022-12-04T16:24:54.885Z,8.50
2022-12-04T16:28:17.185Z,8.50
2022-12-04T16:31:39.366Z,8.50
2022-12-04T16:35:01.968Z,8.50
2022-12-04T16:38:24.020Z,8.40
2022-12-04T16:41:46.233Z,8.40
2022-12-04T16:45:33.739Z,8.40
2022-12-04T16:48:56.575Z,8.40
2022-12-04T16:52:19.766Z,8.40
2022-12-04T16:55:47.262Z,8.40
2022-12-04T16:59:12.157Z,8.50
2022-12-04T17:02:34.635Z,8.50
2022-12-04T17:05:57.207Z,8.50
2022-12-04T17:09:19.409Z,8.50
2022-12-04T17:12:41.963Z,8.50
2022-12-04T17:16:04.136Z,8.50
2022-12-04T17:19:26.534Z,8.50
2022-12-04T17:22:49.486Z,8.50
2022-12-04T17:26:13.968Z,8.50
2022-12-04T17:29:36.674Z,8.50
2022-12-04T17:32:58.982Z,8.40
2022-12-04T17:36:23.607Z,8.30
2022-12-04T17:39:45.959Z,8.30
2022-12-04T17:43:08.012Z,8.20
2022-12-04T17:46:30.139Z,8.20
2022-12-04T17:49:53.126Z,8.10
2022-12-04T17:53:15.662Z,8.10
2022-12-04T17:56:39.119Z,8.00
2022-12-04T18:00:04.918Z,8.10
2022-12-04T18:03:35.169Z,8.00
2022-12-04T18:06:57.331Z,8.00
2022-12-04T18:10:19.394Z,8.00
2022-12-04T18:13:41.419Z,8.00
2022-12-04T18:17:04.454Z,8.00
2022-12-04T18:20:26.668Z,7.90
2022-12-04T18:23:49.264Z,7.90
2022-12-04T18:27:11.296Z,7.90
2022-12-04T18:30:34.491Z,8.00
2022-12-04T18:33:56.725Z,8.20
2022-12-04T18:37:19.023Z,8.20
2022-12-04T18:40:41.068Z,8.00
2022-12-04T18:44:05.854Z,7.90
2022-12-04T18:47:27.914Z,7.80
2022-12-04T18:50:49.956Z,7.90
2022-12-04T18:54:14.687Z,7.90
2022-12-04T18:57:36.723Z,8.00
2022-12-04T19:01:09.350Z,8.00
2022-12-04T19:04:33.274Z,8.10
2022-12-04T19:07:55.395Z,8.10
2022-12-04T19:11:19.691Z,8.10
2022-12-04T19:14:41.822Z,8.10
2022-12-04T19:18:04.046Z,8.10
2022-12-04T19:21:26.314Z,8.10
2022-12-04T19:24:48.583Z,8.10
2022-12-04T19:28:10.715Z,8.20
2022-12-04T19:31:36.079Z,8.20
2022-12-04T19:34:58.159Z,8.20
2022-12-04T19:38:20.160Z,8.20
2022-12-04T19:41:42.212Z,8.20
2022-12-04T19:45:07.346Z,8.20
2022-12-04T19:48:29.473Z,8.20
2022-12-04T19:51:51.623Z,8.20
2022-12-04T19:55:13.613Z,8.20
2022-12-04T19:58:35.954Z,8.20
2022-12-04T20:01:58.331Z,8.20
2022-12-04T20:05:20.446Z,8.10
2022-12-04T20:08:43.448Z,8.10
2022-12-04T20:12:05.608Z,8.10
2022-12-04T20:15:27.573Z,8.20
2022-12-04T20:18:50.112Z,8.20
2022-12-04T20:22:12.133Z,8.20
2022-12-04T20:25:36.305Z,8.20
2022-12-04T20:28:59.803Z,8.20
2022-12-04T20:32:21.813Z,8.20
2022-12-04T20:35:43.876Z,8.20
2022-12-04T20:39:11.847Z,8.20
2022-12-04T20:42:34.908Z,8.20
2022-12-04T20:45:57.004Z,8.20
2022-12-04T20:49:21.912Z,8.20
2022-12-04T20:52:44.436Z,8.20
2022-12-04T20:56:06.941Z,8.20
2022-12-04T20:59:28.941Z,8.20
2022-12-04T21:02:51.131Z,8.20
2022-12-04T21:06:22.630Z,8.20
2022-12-04T21:09:44.800Z,8.20
2022-12-04T21:13:25.318Z,8.20
2022-12-04T21:16:48.224Z,8.20
2022-12-04T21:20:11.042Z,8.20
2022-12-04T21:23:33.107Z,8.20
2022-12-04T21:26:56.439Z,8.20
2022-12-04T21:30:18.550Z,8.20
2022-12-04T21:33:40.693Z,8.20
2022-12-04T21:37:02.840Z,8.20
2022-12-04T21:40:25.003Z,8.20
2022-12-04T21:43:47.047Z,8.20
2022-12-04T21:47:09.050Z,8.20
2022-12-04T21:50:31.142Z,8.20
2022-12-04T21:53:54.637Z,8.20
2022-12-04T21:57:16.619Z,8.20
2022-12-04T22:00:38.702Z,8.20
2022-12-04T22:04:00.923Z,8.10
2022-12-04T22:11:45.774Z,8.10
2022-12-04T22:15:08.397Z,8.20
2022-12-04T22:19:04.278Z,8.10
2022-12-04T22:22:26.262Z,8.10
2022-12-04T22:25:48.373Z,8.10
2022-12-04T22:29:42.067Z,8.10
2022-12-04T22:32:53.463Z,8.00
2022-12-04T22:36:18.849Z,8.00
2022-12-04T22:39:41.006Z,8.00
2022-12-04T22:43:02.988Z,8.00
2022-12-04T22:46:25.085Z,8.00
2022-12-04T22:49:47.356Z,8.00
2022-12-04T22:53:09.459Z,8.00
2022-12-04T22:56:32.311Z,8.00
2022-12-04T22:59:54.471Z,8.00
2022-12-04T23:03:16.520Z,8.00
2022-12-04T23:06:38.828Z,8.00
2022-12-04T23:10:00.855Z,8.00
2022-12-04T23:13:23.016Z,8.00
2022-12-04T23:16:45.261Z,8.00
2022-12-04T23:20:07.901Z,8.10
2022-12-04T23:23:30.025Z,8.10
2022-12-04T23:26:52.193Z,8.10
2022-12-04T23:30:14.265Z,8.10
2022-12-04T23:33:36.796Z,8.10
2022-12-04T23:36:58.783Z,8.10
2022-12-04T23:40:20.773Z,8.10
2022-12-04T23:43:43.972Z,8.10
2022-12-04T23:47:06.026Z,8.10
2022-12-04T23:50:28.116Z,8.10
2022-12-04T23:53:51.398Z,8.10
2022-12-04T23:57:14.217Z,8.10
